createdAt,value
2022-10-25T00:00:01.775Z,40.78
2022-10-25T00:02:42.335Z,40.00
2022-10-25T00:05:18.643Z,41.40
2022-10-25T00:07:49.761Z,39.10
2022-10-25T00:10:23.496Z,39.75
2022-10-25T00:12:56.662Z,37.58
2022-10-25T00:15:28.196Z,36.95
2022-10-25T00:17:59.200Z,39.22
2022-10-25T00:20:30.044Z,38.75
2022-10-25T00:23:00.908Z,37.20
2022-10-25T00:25:31.666Z,36.58
2022-10-25T00:28:02.467Z,36.47
2022-10-25T00:30:33.417Z,37.80
2022-10-25T00:33:04.217Z,36.50
2022-10-25T00:35:35.127Z,36.97
2022-10-25T00:38:06.062Z,35.90
2022-10-25T00:40:37.034Z,35.70
2022-10-25T00:43:07.856Z,35.78
2022-10-25T00:45:38.764Z,34.40
2022-10-25T00:48:14.281Z,35.58
2022-10-25T00:50:57.608Z,34.25
2022-10-25T00:53:40.104Z,36.38
2022-10-25T00:56:20.222Z,32.13
2022-10-25T00:58:56.283Z,32.80
2022-10-25T01:01:28.271Z,31.95
2022-10-25T01:04:02.855Z,33.55
2022-10-25T01:06:49.518Z,31.58
2022-10-25T01:09:33.474Z,30.55
2022-10-25T01:12:04.304Z,30.73
2022-10-25T01:14:44.376Z,29.98
2022-10-25T01:17:41.190Z,32.15
2022-10-25T01:20:42.015Z,29.45
2022-10-25T01:23:22.065Z,30.97
2022-10-25T01:25:59.312Z,29.85
2022-10-25T01:28:59.035Z,29.80
2022-10-25T01:32:07.691Z,28.80
2022-10-25T01:34:50.766Z,29.88
2022-10-25T01:37:39.015Z,28.33
2022-10-25T01:40:25.034Z,28.50
2022-10-25T01:43:17.145Z,27.58
2022-10-25T01:46:17.007Z,26.88
2022-10-25T01:48:51.887Z,28.83
2022-10-25T01:51:22.704Z,28.02
2022-10-25T01:53:54.895Z,27.85
2022-10-25T01:56:31.460Z,28.20
2022-10-25T01:59:54.991Z,26.98
2022-10-25T02:02:33.928Z,27.73
2022-10-25T02:05:30.031Z,28.13
2022-10-25T02:08:06.344Z,29.05
2022-10-25T02:10:40.010Z,28.38
2022-10-25T02:13:36.633Z,27.02
2022-10-25T02:16:28.377Z,27.10
2022-10-25T02:19:05.179Z,27.13
2022-10-25T02:21:39.245Z,27.15
2022-10-25T02:24:24.358Z,27.25
2022-10-25T02:26:57.419Z,27.10
2022-10-25T02:29:31.215Z,26.02
2022-10-25T02:32:02.523Z,25.48
2022-10-25T02:34:33.743Z,26.05
2022-10-25T02:39:36.275Z,23.70
2022-10-25T02:42:08.392Z,24.02
2022-10-25T02:44:39.446Z,24.33
2022-10-25T02:47:10.297Z,24.15
2022-10-25T02:49:41.313Z,22.23
2022-10-25T02:52:12.242Z,23.35
2022-10-25T02:54:43.181Z,22.70
2022-10-25T02:57:14.052Z,23.58
2022-10-25T02:59:45.029Z,23.92
2022-10-25T03:02:15.940Z,23.45
2022-10-25T03:04:46.900Z,23.52
2022-10-25T03:07:17.976Z,22.90
2022-10-25T03:09:48.942Z,22.38
2022-10-25T03:12:19.766Z,21.80
2022-10-25T03:14:50.497Z,21.45
2022-10-25T03:17:21.306Z,22.75
2022-10-25T03:19:52.168Z,21.70
2022-10-25T03:22:23.199Z,21.58
2022-10-25T03:24:54.100Z,20.48
2022-10-25T03:27:25.321Z,20.55
2022-10-25T03:29:57.523Z,21.58
2022-10-25T03:32:28.387Z,20.30
2022-10-25T03:34:59.187Z,19.25
2022-10-25T03:37:30.157Z,19.90
2022-10-25T03:40:00.953Z,20.27
2022-10-25T03:42:31.930Z,20.20
2022-10-25T03:45:02.841Z,19.17
2022-10-25T03:47:33.654Z,21.10
2022-10-25T03:50:05.035Z,19.85
2022-10-25T03:55:06.862Z,19.27
2022-10-25T03:57:38.013Z,19.88
2022-10-25T04:00:09.339Z,18.20
2022-10-25T04:02:43.267Z,18.42
2022-10-25T04:05:14.033Z,19.20
2022-10-25T04:07:45.428Z,19.95
2022-10-25T04:10:16.471Z,20.45
2022-10-25T04:12:47.586Z,18.70
2022-10-25T04:15:19.149Z,18.35
2022-10-25T04:17:54.059Z,18.65
2022-10-25T04:20:25.560Z,18.75
2022-10-25T04:22:58.399Z,18.70
2022-10-25T04:25:30.736Z,18.67
2022-10-25T04:28:03.089Z,18.23
2022-10-25T04:30:36.585Z,18.27
2022-10-25T04:33:10.054Z,17.25
2022-10-25T04:35:40.992Z,17.55
2022-10-25T04:38:11.701Z,17.87
2022-10-25T04:40:42.754Z,17.27
2022-10-25T04:43:13.410Z,16.35
2022-10-25T04:45:44.317Z,17.35
2022-10-25T04:48:15.307Z,17.17
2022-10-25T04:50:46.416Z,18.60
2022-10-25T04:53:17.202Z,17.80
2022-10-25T04:55:48.327Z,17.95
2022-10-25T04:58:19.084Z,17.92
2022-10-25T05:00:50.510Z,18.05
2022-10-25T05:03:21.502Z,17.20
2022-10-25T05:05:52.414Z,17.67
2022-10-25T05:08:23.241Z,16.83
2022-10-25T05:10:58.117Z,16.55
2022-10-25T05:13:28.945Z,17.95
2022-10-25T05:16:02.291Z,18.52
2022-10-25T05:18:35.132Z,18.58
2022-10-25T05:21:08.819Z,18.88
2022-10-25T05:23:39.820Z,18.23
2022-10-25T05:26:13.512Z,19.08
2022-10-25T05:28:46.872Z,17.70
2022-10-25T05:31:20.739Z,18.50
2022-10-25T05:33:57.122Z,17.73
2022-10-25T05:36:28.445Z,18.80
2022-10-25T05:41:33.194Z,18.33
2022-10-25T05:44:07.803Z,19.35
2022-10-25T05:46:39.233Z,18.80
2022-10-25T05:51:41.698Z,19.08
2022-10-25T05:54:17.306Z,18.60
2022-10-25T05:56:48.220Z,19.52
2022-10-25T05:59:19.177Z,18.50
2022-10-25T06:01:53.781Z,18.80
2022-10-25T06:04:38.199Z,18.90
2022-10-25T06:07:09.058Z,18.65
2022-10-25T06:09:39.788Z,19.05
2022-10-25T06:12:10.639Z,18.50
2022-10-25T06:14:43.235Z,18.98
2022-10-25T06:17:16.495Z,18.60
2022-10-25T06:19:47.402Z,19.10
2022-10-25T06:22:18.311Z,19.05
2022-10-25T06:24:49.231Z,20.20
2022-10-25T06:27:19.997Z,18.48
2022-10-25T06:29:51.092Z,18.75
2022-10-25T06:32:21.866Z,18.55
2022-10-25T06:34:52.895Z,18.27
2022-10-25T06:37:23.570Z,19.07
2022-10-25T06:39:54.561Z,17.67
2022-10-25T06:42:25.699Z,18.20
2022-10-25T06:47:38.683Z,18.67
2022-10-25T06:50:10.692Z,18.70
2022-10-25T06:53:01.606Z,18.33
2022-10-25T06:55:32.441Z,18.33
2022-10-25T06:58:08.350Z,18.60
2022-10-25T07:00:39.326Z,18.30
2022-10-25T07:03:10.134Z,18.42
2022-10-25T07:06:01.729Z,18.25
2022-10-25T07:08:32.587Z,17.80
2022-10-25T07:11:03.901Z,18.05
2022-10-25T07:16:07.802Z,17.65
2022-10-25T07:18:39.980Z,18.83
2022-10-25T07:21:14.511Z,18.77
2022-10-25T07:23:45.800Z,18.92
2022-10-25T07:26:19.750Z,17.98
2022-10-25T07:28:52.242Z,17.67
2022-10-25T07:31:26.447Z,18.17
2022-10-25T07:34:00.295Z,18.13
2022-10-25T07:36:31.698Z,18.15
2022-10-25T07:39:03.462Z,18.38
2022-10-25T07:41:34.324Z,18.63
2022-10-25T07:44:05.341Z,18.20
2022-10-25T07:46:36.054Z,17.73
2022-10-25T07:49:06.723Z,17.13
2022-10-25T07:51:37.506Z,17.23
2022-10-25T07:54:08.479Z,18.45
2022-10-25T07:56:39.411Z,17.13
2022-10-25T07:59:10.326Z,18.52
2022-10-25T08:01:41.394Z,18.25
2022-10-25T08:04:12.348Z,18.80
2022-10-25T08:06:43.519Z,17.73
2022-10-25T08:09:26.559Z,18.73
2022-10-25T08:12:04.595Z,19.45
2022-10-25T08:14:38.137Z,18.23
2022-10-25T08:17:11.796Z,18.98
2022-10-25T08:19:42.572Z,18.98
2022-10-25T08:22:13.410Z,18.67
2022-10-25T08:27:14.975Z,18.38
2022-10-25T08:29:45.890Z,19.00
2022-10-25T08:32:17.191Z,18.60
2022-10-25T08:37:33.483Z,17.95
2022-10-25T08:40:04.397Z,18.90
2022-10-25T08:42:45.323Z,19.08
2022-10-25T08:45:48.489Z,18.00
2022-10-25T08:48:23.784Z,18.33
2022-10-25T08:50:59.275Z,18.60
2022-10-25T08:53:39.829Z,19.05
2022-10-25T08:56:17.945Z,18.50
2022-10-25T08:59:00.895Z,16.75
2022-10-25T09:01:50.333Z,18.38
2022-10-25T09:04:21.290Z,18.67
2022-10-25T09:07:22.910Z,18.63
2022-10-25T09:10:17.679Z,19.83
2022-10-25T09:12:56.120Z,19.40
2022-10-25T09:16:03.842Z,19.52
2022-10-25T09:18:50.982Z,18.40
2022-10-25T09:21:40.005Z,18.27
2022-10-25T09:24:36.337Z,18.42
2022-10-25T09:27:17.053Z,18.85
2022-10-25T09:30:07.343Z,17.87
2022-10-25T09:32:57.011Z,18.30
2022-10-25T09:35:48.428Z,18.58
2022-10-25T09:41:29.944Z,18.55
2022-10-25T09:44:23.317Z,20.15
2022-10-25T09:47:24.086Z,20.50
2022-10-25T09:50:29.079Z,19.47
2022-10-25T09:53:18.900Z,20.23
2022-10-25T09:55:58.784Z,20.60
2022-10-25T09:58:33.163Z,19.60
2022-10-25T10:01:09.366Z,19.30
2022-10-25T10:03:40.584Z,19.83
2022-10-25T10:06:39.309Z,19.20
2022-10-25T10:09:15.166Z,19.20
2022-10-25T10:11:47.454Z,19.80
2022-10-25T10:14:33.264Z,19.25
2022-10-25T10:17:05.295Z,20.25
2022-10-25T10:19:36.264Z,20.55
2022-10-25T10:22:16.047Z,20.27
2022-10-25T10:24:52.170Z,20.67
2022-10-25T10:27:28.906Z,20.38
2022-10-25T10:30:03.669Z,20.27
2022-10-25T10:35:32.676Z,20.25
2022-10-25T10:38:32.726Z,20.60
2022-10-25T10:41:30.678Z,21.13
2022-10-25T10:44:15.954Z,20.95
2022-10-25T10:46:51.899Z,20.85
2022-10-25T10:49:22.635Z,21.17
2022-10-25T10:51:53.617Z,20.45
2022-10-25T10:54:33.460Z,20.50
2022-10-25T10:57:10.013Z,21.45
2022-10-25T10:59:59.289Z,21.00
2022-10-25T11:02:44.872Z,20.25
2022-10-25T11:05:32.963Z,21.50
2022-10-25T11:08:12.281Z,20.88
2022-10-25T11:10:43.603Z,21.10
2022-10-25T11:16:05.016Z,20.27
2022-10-25T11:18:54.249Z,21.20
2022-10-25T11:21:33.758Z,21.00
2022-10-25T11:24:28.868Z,20.40
2022-10-25T11:27:21.287Z,21.23
2022-10-25T11:30:00.481Z,20.20
2022-10-25T11:32:47.581Z,21.23
2022-10-25T11:35:58.863Z,21.10
2022-10-25T11:38:48.062Z,22.05
2022-10-25T11:41:44.044Z,21.25
2022-10-25T11:44:35.676Z,21.92
2022-10-25T11:47:12.039Z,21.35
2022-10-25T11:50:01.617Z,21.30
2022-10-25T11:53:23.237Z,22.70
2022-10-25T11:56:03.848Z,22.25
2022-10-25T11:59:04.617Z,22.63
2022-10-25T12:02:05.183Z,24.23
2022-10-25T12:04:44.452Z,24.58
2022-10-25T12:07:33.561Z,23.08
2022-10-25T12:10:31.175Z,22.85
2022-10-25T12:13:14.804Z,24.60
2022-10-25T12:15:51.566Z,29.77
2022-10-25T12:18:29.369Z,23.67
2022-10-25T12:21:01.661Z,25.27
2022-10-25T12:23:47.210Z,25.67
2022-10-25T12:26:36.106Z,26.98
2022-10-25T12:29:10.186Z,25.50
2022-10-25T12:31:46.308Z,25.65
2022-10-25T12:34:46.683Z,27.70
2022-10-25T12:37:40.951Z,29.92
2022-10-25T12:40:19.999Z,30.27
2022-10-25T12:43:10.539Z,27.58
2022-10-25T12:46:01.934Z,26.85
2022-10-25T12:48:50.911Z,28.30
2022-10-25T12:51:30.748Z,27.63
2022-10-25T12:54:35.937Z,30.27
2022-10-25T12:57:27.503Z,27.95
2022-10-25T13:03:22.708Z,28.60
2022-10-25T13:06:19.313Z,27.42
2022-10-25T13:08:50.648Z,27.73
2022-10-25T13:11:21.716Z,28.50
2022-10-25T13:16:33.168Z,26.95
2022-10-25T13:22:57.181Z,29.38
2022-10-25T13:25:33.962Z,29.27
2022-10-25T13:28:20.048Z,28.00
2022-10-25T13:30:50.968Z,26.77
2022-10-25T13:33:23.790Z,28.60
2022-10-25T13:35:54.601Z,28.60
2022-10-25T13:38:33.281Z,30.50
2022-10-25T13:41:13.719Z,29.55
2022-10-25T13:44:07.981Z,29.83
2022-10-25T13:46:42.538Z,28.90
2022-10-25T13:49:34.490Z,29.60
2022-10-25T13:52:09.397Z,31.02
2022-10-25T13:54:53.279Z,31.23
2022-10-25T13:57:49.154Z,33.65
2022-10-25T14:00:37.469Z,33.80
2022-10-25T14:03:17.040Z,35.53
2022-10-25T14:06:18.452Z,35.70
2022-10-25T14:11:26.355Z,33.83
2022-10-25T14:14:15.427Z,34.90
2022-10-25T14:17:23.206Z,34.90
2022-10-25T14:20:00.635Z,33.83
2022-10-25T14:22:57.087Z,35.13
2022-10-25T14:25:43.658Z,35.30
2022-10-25T14:28:20.304Z,33.83
2022-10-25T14:30:53.224Z,34.60
2022-10-25T14:33:36.766Z,34.55
2022-10-25T14:36:13.301Z,33.25
2022-10-25T14:38:57.057Z,35.67
2022-10-25T14:41:33.628Z,31.50
2022-10-25T14:44:05.367Z,34.17
2022-10-25T14:46:36.712Z,33.53
2022-10-25T14:49:12.516Z,34.00
2022-10-25T14:51:46.249Z,34.35
2022-10-25T14:54:38.835Z,34.30
2022-10-25T14:57:13.293Z,33.45
2022-10-25T14:59:51.117Z,34.03
2022-10-25T15:02:31.247Z,31.60
2022-10-25T15:05:04.039Z,31.23
2022-10-25T15:07:45.407Z,30.85
2022-10-25T15:13:38.743Z,31.58
2022-10-25T15:16:35.544Z,31.20
2022-10-25T15:19:15.402Z,30.70
2022-10-25T15:21:54.311Z,30.98
2022-10-25T15:24:28.006Z,30.38
2022-10-25T15:27:03.494Z,31.00
2022-10-25T15:32:30.172Z,31.25
2022-10-25T15:35:05.387Z,30.40
2022-10-25T15:37:36.227Z,31.40
2022-10-25T15:40:19.192Z,30.00
2022-10-25T15:42:50.179Z,29.52
2022-10-25T15:45:21.206Z,31.27
2022-10-25T15:47:52.843Z,30.90
2022-10-25T15:50:25.400Z,32.05
2022-10-25T15:52:56.686Z,31.63
2022-10-25T15:55:30.079Z,32.45
2022-10-25T15:58:00.940Z,32.47
2022-10-25T16:00:33.784Z,31.23
2022-10-25T16:03:04.886Z,32.83
2022-10-25T16:08:10.666Z,34.40
2022-10-25T16:10:42.477Z,34.45
2022-10-25T16:13:18.728Z,34.25
2022-10-25T16:15:49.581Z,33.90
2022-10-25T16:18:20.898Z,34.72
2022-10-25T16:20:52.005Z,33.63
2022-10-25T16:23:26.478Z,35.22
2022-10-25T16:25:59.052Z,34.58
2022-10-25T16:28:29.942Z,35.97
2022-10-25T16:31:00.669Z,36.15
2022-10-25T16:33:31.573Z,35.83
2022-10-25T16:36:02.416Z,35.40
2022-10-25T16:38:33.337Z,37.03
2022-10-25T16:41:04.190Z,37.45
2022-10-25T16:43:35.139Z,37.30
2022-10-25T16:46:05.865Z,37.00
2022-10-25T16:48:38.916Z,37.63
2022-10-25T16:51:09.741Z,38.38
2022-10-25T16:53:40.648Z,38.30
2022-10-25T16:56:14.068Z,38.10
2022-10-25T16:58:45.960Z,39.08
2022-10-25T17:01:44.582Z,40.42
2022-10-25T17:04:17.740Z,39.08
2022-10-25T17:06:48.645Z,38.15
2022-10-25T17:09:20.579Z,40.65
2022-10-25T17:11:51.348Z,38.53
2022-10-25T17:14:22.071Z,39.92
2022-10-25T17:16:53.003Z,40.13
2022-10-25T17:19:23.778Z,38.80
2022-10-25T17:21:54.685Z,39.20
2022-10-25T17:24:26.560Z,40.28
2022-10-25T17:26:57.574Z,38.83
2022-10-25T17:29:28.701Z,37.28
2022-10-25T17:31:59.597Z,38.05
2022-10-25T17:34:30.428Z,36.80
2022-10-25T17:37:02.872Z,35.65
2022-10-25T17:39:33.633Z,38.30
2022-10-25T17:42:04.949Z,36.58
2022-10-25T17:47:06.429Z,36.00
2022-10-25T17:49:37.079Z,35.90
2022-10-25T17:52:09.435Z,36.28
2022-10-25T17:54:41.505Z,35.78
2022-10-25T17:57:12.428Z,36.03
2022-10-25T17:59:43.253Z,36.10
2022-10-25T18:02:16.402Z,37.33
2022-10-25T18:05:02.303Z,36.90
2022-10-25T18:07:40.318Z,36.47
2022-10-25T18:10:11.651Z,35.33
2022-10-25T18:15:13.297Z,35.28
2022-10-25T18:17:44.813Z,35.75
2022-10-25T18:20:16.223Z,34.75
2022-10-25T18:22:47.784Z,34.80
2022-10-25T18:25:18.769Z,35.20
2022-10-25T18:27:49.907Z,35.83
2022-10-25T18:30:21.103Z,35.28
2022-10-25T18:32:52.133Z,36.53
2022-10-25T18:35:24.022Z,35.65
2022-10-25T18:37:54.950Z,34.33
2022-10-25T18:40:25.863Z,36.70
2022-10-25T18:42:56.709Z,36.33
2022-10-25T18:45:27.825Z,35.88
2022-10-25T18:47:58.475Z,36.33
2022-10-25T18:50:29.432Z,36.95
2022-10-25T18:53:00.650Z,35.53
2022-10-25T18:55:56.386Z,35.70
2022-10-25T18:58:27.455Z,37.20
2022-10-25T19:00:58.263Z,35.67
2022-10-25T19:03:29.160Z,35.95
2022-10-25T19:06:00.142Z,35.30
2022-10-25T19:08:30.946Z,36.40
2022-10-25T19:13:37.390Z,37.65
2022-10-25T19:16:09.593Z,35.42
2022-10-25T19:18:40.802Z,35.63
2022-10-25T19:21:29.740Z,36.45
2022-10-25T19:24:00.581Z,35.75
2022-10-25T19:26:31.419Z,36.67
2022-10-25T19:29:03.864Z,37.00
2022-10-25T19:31:34.792Z,35.28
2022-10-25T19:34:06.092Z,36.15
2022-10-25T19:36:54.866Z,36.55
2022-10-25T19:39:25.722Z,35.92
2022-10-25T19:41:56.567Z,35.20
2022-10-25T19:44:27.463Z,34.67
2022-10-25T19:47:00.266Z,37.45
2022-10-25T19:49:31.223Z,36.22
2022-10-25T19:52:02.081Z,36.53
2022-10-25T19:54:32.929Z,36.97
2022-10-25T19:57:04.908Z,36.10
2022-10-25T19:59:36.599Z,35.55
2022-10-25T20:02:07.612Z,37.50
2022-10-25T20:04:38.837Z,38.22
2022-10-25T20:07:09.898Z,37.45
2022-10-25T20:09:40.822Z,36.03
2022-10-25T20:12:11.825Z,37.42
2022-10-25T20:14:42.932Z,36.97
2022-10-25T20:19:45.982Z,35.40
2022-10-25T20:22:16.924Z,35.90
2022-10-25T20:24:47.700Z,35.65
2022-10-25T20:27:18.484Z,36.65
2022-10-25T20:29:49.479Z,36.70
2022-10-25T20:32:20.469Z,36.42
2022-10-25T20:34:51.429Z,34.47
2022-10-25T20:37:22.382Z,36.17
2022-10-25T20:39:53.245Z,35.05
2022-10-25T20:42:24.313Z,35.50
2022-10-25T20:44:55.499Z,36.35
2022-10-25T20:49:56.823Z,36.28
2022-10-25T20:52:27.773Z,36.72
2022-10-25T20:54:58.653Z,35.63
2022-10-25T20:57:29.622Z,35.17
2022-10-25T21:00:00.495Z,34.38
2022-10-25T21:02:31.436Z,35.70
2022-10-25T21:05:02.268Z,34.42
2022-10-25T21:07:34.435Z,35.28
2022-10-25T21:10:05.207Z,34.72
2022-10-25T21:12:36.256Z,33.97
2022-10-25T21:15:11.002Z,35.20
2022-10-25T21:17:43.083Z,35.20
2022-10-25T21:20:14.235Z,35.03
2022-10-25T21:25:16.149Z,33.67
2022-10-25T21:27:47.518Z,34.85
2022-10-25T21:32:48.866Z,33.28
2022-10-25T21:35:20.540Z,34.00
2022-10-25T21:38:09.063Z,33.20
2022-10-25T21:40:39.970Z,33.70
2022-10-25T21:43:10.922Z,35.35
2022-10-25T21:45:44.823Z,34.55
2022-10-25T21:48:15.642Z,34.13
2022-10-25T21:50:46.572Z,33.88
2022-10-25T21:53:17.576Z,32.78
2022-10-25T21:55:48.307Z,32.85
2022-10-25T21:58:19.214Z,33.90
2022-10-25T22:00:50.123Z,33.50
2022-10-25T22:03:23.053Z,31.75
2022-10-25T22:05:56.392Z,32.55
2022-10-25T22:08:27.571Z,32.90
2022-10-25T22:13:31.024Z,32.38
2022-10-25T22:16:05.594Z,32.00
2022-10-25T22:19:18.728Z,32.25
2022-10-25T22:21:51.718Z,32.05
2022-10-25T22:24:22.684Z,30.13
2022-10-25T22:26:54.206Z,31.58
2022-10-25T22:29:25.227Z,31.40
2022-10-25T22:31:56.162Z,33.20
2022-10-25T22:34:27.124Z,31.85
2022-10-25T22:36:58.042Z,30.83
2022-10-25T22:39:28.959Z,30.60
2022-10-25T22:41:59.713Z,31.60
2022-10-25T22:44:30.616Z,32.20
2022-10-25T22:47:01.509Z,30.05
2022-10-25T22:49:32.325Z,30.85
2022-10-25T22:54:42.893Z,31.45
2022-10-25T22:57:13.909Z,29.08
2022-10-25T22:59:44.957Z,29.23
2022-10-25T23:02:15.797Z,30.08
2022-10-25T23:04:46.818Z,30.30
2022-10-25T23:07:17.845Z,28.33
2022-10-25T23:09:48.610Z,29.13
2022-10-25T23:12:19.434Z,28.58
2022-10-25T23:14:50.325Z,29.05
2022-10-25T23:17:21.301Z,30.17
2022-10-25T23:19:52.092Z,28.38
2022-10-25T23:22:22.986Z,27.65
2022-10-25T23:24:53.774Z,26.52
2022-10-25T23:27:24.386Z,27.37
2022-10-25T23:29:55.232Z,27.30
2022-10-25T23:32:26.053Z,26.45
2022-10-25T23:34:57.203Z,26.35
2022-10-25T23:37:28.080Z,27.55
2022-10-25T23:39:59.264Z,25.92
2022-10-25T23:42:30.083Z,26.17
2022-10-25T23:45:00.836Z,26.00
2022-10-25T23:47:31.637Z,26.02
2022-10-25T23:50:02.823Z,24.88
2022-10-25T23:52:33.705Z,25.80
2022-10-25T23:55:04.765Z,24.98
2022-10-25T23:57:35.528Z,24.67
